Time,TemperatureF,DewpointF,PressureIn,WindDirection,WindDirectionDegrees,WindSpeedMPH,WindSpeedGustMPH,Humidity,HourlyPrecipIn,Conditions,Clouds,dailyrainin,SolarRadiationWatts/m^2,SoftwareType,DateUTC
2013-06-08 00:02:00,57.0,35.0,-100.00,WNW,284,8.0,14.0,44,0.00,,,0.00,0.000000,,2013-06-08 07:02:00,
2013-06-08 00:12:00,57.0,35.0,-100.00,WNW,284,8.0,14.0,44,0.00,,,0.00,0.000000,,2013-06-08 07:12:00,
2013-06-08 00:32:00,55.0,35.0,-100.00,WNW,283,7.0,15.0,46,0.00,,,0.00,0.000000,,2013-06-08 07:32:00,
2013-06-08 00:42:00,55.0,35.0,-100.00,WNW,283,7.0,15.0,46,0.00,,,0.00,0.000000,,2013-06-08 07:42:00,
2013-06-08 00:52:00,55.0,35.0,-100.00,WNW,283,7.0,15.0,46,0.00,,,0.00,0.000000,,2013-06-08 07:52:00,
2013-06-08 01:02:00,55.0,35.0,-100.00,WNW,283,7.0,15.0,46,0.00,,,0.00,0.000000,,2013-06-08 08:02:00,
2013-06-08 01:12:00,55.0,35.0,-100.00,WNW,283,7.0,15.0,46,0.00,,,0.00,0.000000,,2013-06-08 08:12:00,
2013-06-08 01:32:00,54.0,35.0,-100.00,WSW,258,7.0,11.0,48,0.00,,,0.00,0.000000,,2013-06-08 08:32:00,
2013-06-08 01:42:00,54.0,35.0,-100.00,WSW,258,7.0,11.0,48,0.00,,,0.00,0.000000,,2013-06-08 08:42:00,
2013-06-08 01:52:00,54.0,35.0,-100.00,WSW,258,7.0,11.0,48,0.00,,,0.00,0.000000,,2013-06-08 08:52:00,
2013-06-08 02:02:00,54.0,35.0,-100.00,WSW,258,7.0,11.0,48,0.00,,,0.00,0.000000,,2013-06-08 09:02:00,
2013-06-08 02:12:00,54.0,35.0,-100.00,WSW,258,7.0,11.0,48,0.00,,,0.00,0.000000,,2013-06-08 09:12:00,
2013-06-08 02:33:00,53.0,33.0,-100.00,SE,141,3.0,9.0,47,0.00,,,-99.99,0.000000,,2013-06-08 09:33:00,
2013-06-08 02:43:00,53.0,33.0,-100.00,SE,141,3.0,9.0,47,0.00,,,-99.99,0.000000,,2013-06-08 09:43:00,
2013-06-08 02:53:00,53.0,33.0,-100.00,SE,141,3.0,9.0,47,0.00,,,-99.99,0.000000,,2013-06-08 09:53:00,
2013-06-08 03:02:00,53.0,33.0,-100.00,SE,141,3.0,9.0,47,0.00,,,-99.99,0.000000,,2013-06-08 10:02:00,
2013-06-08 03:12:00,53.0,33.0,-100.00,SE,141,3.0,9.0,47,0.00,,,-99.99,0.000000,,2013-06-08 10:12:00,
2013-06-08 03:33:00,52.0,32.0,-100.00,SW,214,4.0,8.0,46,0.00,,,0.00,0.000000,,2013-06-08 10:33:00,
2013-06-08 03:43:00,52.0,32.0,-100.00,SW,214,4.0,8.0,46,0.00,,,0.00,0.000000,,2013-06-08 10:43:00,
2013-06-08 03:53:00,52.0,32.0,-100.00,SW,214,4.0,8.0,46,0.00,,,0.00,0.000000,,2013-06-08 10:53:00,
2013-06-08 04:02:00,52.0,32.0,-100.00,SW,214,4.0,8.0,46,0.00,,,0.00,0.000000,,2013-06-08 11:02:00,
2013-06-08 04:11:00,52.0,32.0,-100.00,SW,214,4.0,8.0,46,0.00,,,0.00,0.000000,,2013-06-08 11:11:00,
2013-06-08 04:32:00,52.0,32.0,-100.00,SSE,156,5.0,7.0,46,0.00,,,0.00,0.000000,,2013-06-08 11:32:00,
2013-06-08 04:42:00,52.0,32.0,-100.00,SSE,156,5.0,7.0,46,0.00,,,0.00,0.000000,,2013-06-08 11:42:00,
2013-06-08 04:52:00,52.0,32.0,-100.00,SSE,156,5.0,7.0,46,0.00,,,0.00,0.000000,,2013-06-08 11:52:00,
2013-06-08 05:02:00,52.0,32.0,-100.00,SSE,156,5.0,7.0,46,0.00,,,0.00,0.000000,,2013-06-08 12:02:00,
2013-06-08 05:12:00,52.0,32.0,-100.00,SSE,156,5.0,7.0,46,0.00,,,0.00,0.000000,,2013-06-08 12:12:00,
2013-06-08 05:33:00,52.0,31.0,-100.00,SE,140,4.0,7.0,44,0.00,,,0.00,0.000000,,2013-06-08 12:33:00,
2013-06-08 05:42:00,52.0,31.0,-100.00,SE,140,4.0,7.0,44,0.00,,,0.00,0.000000,,2013-06-08 12:42:00,
2013-06-08 05:52:00,52.0,31.0,-100.00,SE,140,4.0,7.0,44,0.00,,,0.00,0.000000,,2013-06-08 12:52:00,
2013-06-08 06:02:00,52.0,31.0,-100.00,SE,140,4.0,7.0,44,0.00,,,0.00,0.000000,,2013-06-08 13:02:00,
2013-06-08 06:12:00,52.0,31.0,-100.00,SE,140,4.0,7.0,44,0.00,,,0.00,0.000000,,2013-06-08 13:12:00,
2013-06-08 06:32:00,55.0,29.0,-100.00,SSE,153,3.0,7.0,36,0.00,,,0.00,41.000000,,2013-06-08 13:32:00,
2013-06-08 06:42:00,55.0,29.0,-100.00,SSE,153,3.0,7.0,36,0.00,,,0.00,41.000000,,2013-06-08 13:42:00,
2013-06-08 06:52:00,55.0,29.0,-100.00,SSE,153,3.0,7.0,36,0.00,,,0.00,41.000000,,2013-06-08 13:52:00,
2013-06-08 07:02:00,55.0,29.0,-100.00,SSE,153,3.0,7.0,36,0.00,,,0.00,41.000000,,2013-06-08 14:02:00,
2013-06-08 07:32:00,59.0,29.0,-100.00,ESE,123,4.0,6.0,32,0.00,,,0.00,212.000000,,2013-06-08 14:32:00,
2013-06-08 07:42:00,59.0,29.0,-100.00,ESE,123,4.0,6.0,32,0.00,,,0.00,212.000000,,2013-06-08 14:42:00,
2013-06-08 07:52:00,59.0,29.0,-100.00,ESE,123,4.0,6.0,32,0.00,,,0.00,212.000000,,2013-06-08 14:52:00,
2013-06-08 08:02:00,59.0,29.0,-100.00,ESE,123,4.0,6.0,32,0.00,,,0.00,212.000000,,2013-06-08 15:02:00,
2013-06-08 08:12:00,59.0,29.0,-100.00,ESE,123,4.0,6.0,32,0.00,,,0.00,212.000000,,2013-06-08 15:12:00,
2013-06-08 08:33:00,63.0,26.0,-100.00,SE,126,4.0,6.0,24,0.00,,,0.00,419.000000,,2013-06-08 15:33:00,
2013-06-08 08:43:00,63.0,26.0,-100.00,SE,126,4.0,6.0,24,0.00,,,0.00,419.000000,,2013-06-08 15:43:00,
2013-06-08 08:53:00,63.0,26.0,-100.00,SE,126,4.0,6.0,24,0.00,,,0.00,419.000000,,2013-06-08 15:53:00,
2013-06-08 09:02:00,63.0,26.0,-100.00,SE,126,4.0,6.0,24,0.00,,,0.00,419.000000,,2013-06-08 16:02:00,
2013-06-08 09:12:00,63.0,26.0,-100.00,SE,126,4.0,6.0,24,0.00,,,0.00,419.000000,,2013-06-08 16:12:00,
2013-06-08 09:33:00,67.0,29.0,-100.00,North,9,3.0,8.0,24,0.00,,,0.00,631.000000,,2013-06-08 16:33:00,
2013-06-08 09:42:00,67.0,29.0,-100.00,North,9,3.0,8.0,24,0.00,,,0.00,631.000000,,2013-06-08 16:42:00,
2013-06-08 09:53:00,67.0,29.0,-100.00,North,9,3.0,8.0,24,0.00,,,0.00,631.000000,,2013-06-08 16:53:00,
2013-06-08 10:02:00,67.0,29.0,-100.00,North,9,3.0,8.0,24,0.00,,,0.00,631.000000,,2013-06-08 17:02:00,
2013-06-08 10:11:00,67.0,29.0,-100.00,North,9,3.0,8.0,24,0.00,,,0.00,631.000000,,2013-06-08 17:11:00,
2013-06-08 10:32:00,70.0,29.0,-100.00,WSW,245,5.0,11.0,22,0.00,,,-99.99,824.000000,,2013-06-08 17:32:00,
2013-06-08 10:42:00,70.0,29.0,-100.00,WSW,245,5.0,11.0,22,0.00,,,-99.99,824.000000,,2013-06-08 17:42:00,
2013-06-08 10:52:00,70.0,29.0,-100.00,WSW,245,5.0,11.0,22,0.00,,,-99.99,824.000000,,2013-06-08 17:52:00,
2013-06-08 11:02:00,70.0,29.0,-100.00,WSW,245,5.0,11.0,22,0.00,,,-99.99,824.000000,,2013-06-08 18:02:00,
2013-06-08 11:12:00,70.0,29.0,-100.00,WSW,245,5.0,11.0,22,0.00,,,-99.99,824.000000,,2013-06-08 18:12:00,
2013-06-08 11:32:00,74.0,22.0,-100.00,WNW,296,5.0,11.0,14,0.00,,,0.00,981.000000,,2013-06-08 18:32:00,
2013-06-08 11:42:00,74.0,22.0,-100.00,WNW,296,5.0,11.0,14,0.00,,,0.00,981.000000,,2013-06-08 18:42:00,
2013-06-08 11:52:00,74.0,22.0,-100.00,WNW,296,5.0,11.0,14,0.00,,,0.00,981.000000,,2013-06-08 18:52:00,
2013-06-08 12:02:00,74.0,22.0,-100.00,WNW,296,5.0,11.0,14,0.00,,,0.00,981.000000,,2013-06-08 19:02:00,
2013-06-08 12:12:00,74.0,22.0,-100.00,WNW,296,5.0,11.0,14,0.00,,,0.00,981.000000,,2013-06-08 19:12:00,
2013-06-08 12:32:00,76.0,22.0,-100.00,NW,316,5.0,11.0,13,0.00,,,-99.99,1091.000000,,2013-06-08 19:32:00,
2013-06-08 12:42:00,76.0,22.0,-100.00,NW,316,5.0,11.0,13,0.00,,,-99.99,1091.000000,,2013-06-08 19:42:00,
2013-06-08 12:53:00,76.0,22.0,-100.00,NW,316,5.0,11.0,13,0.00,,,-99.99,1091.000000,,2013-06-08 19:53:00,
2013-06-08 13:02:00,76.0,22.0,-100.00,NW,316,5.0,11.0,13,0.00,,,-99.99,1091.000000,,2013-06-08 20:02:00,
2013-06-08 13:32:00,78.0,21.0,-100.00,WSW,241,8.0,13.0,12,0.00,,,0.00,1119.000000,,2013-06-08 20:32:00,
2013-06-08 13:42:00,78.0,21.0,-100.00,WSW,241,8.0,13.0,12,0.00,,,0.00,1119.000000,,2013-06-08 20:42:00,
2013-06-08 13:52:00,78.0,21.0,-100.00,WSW,241,8.0,13.0,12,0.00,,,0.00,1119.000000,,2013-06-08 20:52:00,
2013-06-08 14:02:00,78.0,21.0,-100.00,WSW,241,8.0,13.0,12,0.00,,,0.00,1119.000000,,2013-06-08 21:02:00,
2013-06-08 14:33:00,79.0,29.0,-100.00,West,259,10.0,17.0,16,0.00,,,0.00,1088.000000,,2013-06-08 21:33:00,
2013-06-08 14:43:00,79.0,29.0,-100.00,West,259,10.0,17.0,16,0.00,,,0.00,1088.000000,,2013-06-08 21:43:00,
2013-06-08 14:53:00,79.0,29.0,-100.00,West,259,10.0,17.0,16,0.00,,,0.00,1088.000000,,2013-06-08 21:53:00,
2013-06-08 15:02:00,79.0,29.0,-100.00,West,259,10.0,17.0,16,0.00,,,0.00,1088.000000,,2013-06-08 22:02:00,
2013-06-08 15:12:00,79.0,29.0,-100.00,West,259,10.0,17.0,16,0.00,,,0.00,1088.000000,,2013-06-08 22:12:00,
2013-06-08 15:33:00,79.0,36.0,-100.00,WNW,296,13.0,18.0,21,0.00,,,0.00,758.000000,,2013-06-08 22:33:00,
2013-06-08 15:43:00,79.0,36.0,-100.00,WNW,296,13.0,18.0,21,0.00,,,0.00,758.000000,,2013-06-08 22:43:00,
2013-06-08 15:52:00,79.0,36.0,-100.00,WNW,296,13.0,18.0,21,0.00,,,0.00,758.000000,,2013-06-08 22:52:00,
2013-06-08 16:02:00,79.0,36.0,-100.00,WNW,296,13.0,18.0,21,0.00,,,0.00,758.000000,,2013-06-08 23:02:00,
2013-06-08 16:12:00,79.0,36.0,-100.00,WNW,296,13.0,18.0,21,0.00,,,0.00,758.000000,,2013-06-08 23:12:00,
2013-06-08 16:32:00,80.0,37.0,-100.00,West,277,12.0,21.0,21,0.00,,,0.00,880.000000,,2013-06-08 23:32:00,
2013-06-08 16:42:00,80.0,37.0,-100.00,West,277,12.0,21.0,21,0.00,,,0.00,880.000000,,2013-06-08 23:42:00,
2013-06-08 16:52:00,80.0,37.0,-100.00,West,277,12.0,21.0,21,0.00,,,0.00,880.000000,,2013-06-08 23:52:00,
2013-06-08 17:02:00,80.0,37.0,-100.00,West,277,12.0,21.0,21,0.00,,,0.00,880.000000,,2013-06-09 00:02:00,
2013-06-08 17:11:00,80.0,37.0,-100.00,West,277,12.0,21.0,21,0.00,,,0.00,880.000000,,2013-06-09 00:11:00,
2013-06-08 17:32:00,79.0,37.0,-100.00,WNW,282,13.0,21.0,22,0.00,,,0.00,746.000000,,2013-06-09 00:32:00,
2013-06-08 17:42:00,79.0,37.0,-100.00,WNW,282,13.0,21.0,22,0.00,,,0.00,746.000000,,2013-06-09 00:42:00,
2013-06-08 17:52:00,79.0,37.0,-100.00,WNW,282,13.0,21.0,22,0.00,,,0.00,746.000000,,2013-06-09 00:52:00,
2013-06-08 18:02:00,79.0,37.0,-100.00,WNW,282,13.0,21.0,22,0.00,,,0.00,746.000000,,2013-06-09 01:02:00,
2013-06-08 18:12:00,79.0,37.0,-100.00,WNW,282,13.0,21.0,22,0.00,,,0.00,746.000000,,2013-06-09 01:12:00,
2013-06-08 18:32:00,78.0,37.0,-100.00,WNW,285,13.0,21.0,23,0.00,,,0.00,551.000000,,2013-06-09 01:32:00,
2013-06-08 18:42:00,78.0,37.0,-100.00,WNW,285,13.0,21.0,23,0.00,,,0.00,551.000000,,2013-06-09 01:42:00,
2013-06-08 18:52:00,78.0,37.0,-100.00,WNW,285,13.0,21.0,23,0.00,,,0.00,551.000000,,2013-06-09 01:52:00,
2013-06-08 19:02:00,78.0,37.0,-100.00,WNW,285,13.0,21.0,23,0.00,,,0.00,551.000000,,2013-06-09 02:02:00,
2013-06-08 19:12:00,78.0,37.0,-100.00,WNW,285,13.0,21.0,23,0.00,,,0.00,551.000000,,2013-06-09 02:12:00,
2013-06-08 19:32:00,75.0,38.0,-100.00,West,278,12.0,21.0,26,0.00,,,0.00,341.000000,,2013-06-09 02:32:00,
2013-06-08 19:42:00,75.0,38.0,-100.00,West,278,12.0,21.0,26,0.00,,,0.00,341.000000,,2013-06-09 02:42:00,
2013-06-08 19:52:00,75.0,38.0,-100.00,West,278,12.0,21.0,26,0.00,,,0.00,341.000000,,2013-06-09 02:52:00,
2013-06-08 20:02:00,75.0,38.0,-100.00,West,278,12.0,21.0,26,0.00,,,0.00,341.000000,,2013-06-09 03:02:00,
2013-06-08 20:11:00,75.0,38.0,-100.00,West,278,12.0,21.0,26,0.00,,,0.00,341.000000,,2013-06-09 03:11:00,
2013-06-08 20:33:00,71.0,38.0,-100.00,West,265,11.0,17.0,30,0.00,,,0.00,149.000000,,2013-06-09 03:33:00,
2013-06-08 20:43:00,71.0,38.0,-100.00,West,265,11.0,17.0,30,0.00,,,0.00,149.000000,,2013-06-09 03:43:00,
2013-06-08 20:53:00,71.0,38.0,-100.00,West,265,11.0,17.0,30,0.00,,,0.00,149.000000,,2013-06-09 03:53:00,
2013-06-08 21:02:00,71.0,38.0,-100.00,West,265,11.0,17.0,30,0.00,,,0.00,149.000000,,2013-06-09 04:02:00,
2013-06-08 21:12:00,71.0,38.0,-100.00,West,265,11.0,17.0,30,0.00,,,0.00,149.000000,,2013-06-09 04:12:00,
2013-06-08 21:33:00,65.0,39.0,-100.00,West,261,8.0,15.0,39,0.00,,,0.00,14.000000,,2013-06-09 04:33:00,
2013-06-08 21:43:00,65.0,39.0,-100.00,West,261,8.0,15.0,39,0.00,,,0.00,14.000000,,2013-06-09 04:43:00,
2013-06-08 21:53:00,65.0,39.0,-100.00,West,261,8.0,15.0,39,0.00,,,0.00,14.000000,,2013-06-09 04:53:00,
2013-06-08 22:02:00,65.0,39.0,-100.00,West,261,8.0,15.0,39,0.00,,,0.00,14.000000,,2013-06-09 05:02:00,
2013-06-08 22:12:00,65.0,39.0,-100.00,West,261,8.0,15.0,39,0.00,,,0.00,14.000000,,2013-06-09 05:12:00,
2013-06-08 22:32:00,63.0,40.0,-100.00,SSW,196,5.0,12.0,43,0.00,,,0.00,0.000000,,2013-06-09 05:32:00,
2013-06-08 22:42:00,63.0,40.0,-100.00,SSW,196,5.0,12.0,43,0.00,,,0.00,0.000000,,2013-06-09 05:42:00,
2013-06-08 22:52:00,63.0,40.0,-100.00,SSW,196,5.0,12.0,43,0.00,,,0.00,0.000000,,2013-06-09 05:52:00,
2013-06-08 23:02:00,63.0,40.0,-100.00,SSW,196,5.0,12.0,43,0.00,,,0.00,0.000000,,2013-06-09 06:02:00,
2013-06-08 23:11:00,63.0,40.0,-100.00,SSW,196,5.0,12.0,43,0.00,,,0.00,0.000000,,2013-06-09 06:11:00,
2013-06-08 23:32:00,61.0,40.0,-100.00,WSW,242,6.0,9.0,45,0.00,,,0.00,0.000000,,2013-06-09 06:32:00,
2013-06-08 23:42:00,61.0,40.0,-100.00,WSW,242,6.0,9.0,45,0.00,,,0.00,0.000000,,2013-06-09 06:42:00,
2013-06-08 23:52:00,61.0,40.0,-100.00,WSW,242,6.0,9.0,45,0.00,,,0.00,0.000000,,2013-06-09 06:52:00,